createdAt,value
2022-10-29T00:00:54.947Z,2.13
2022-10-29T00:03:22.801Z,2.50
2022-10-29T00:06:00.628Z,3.03
2022-10-29T00:08:28.742Z,2.30
2022-10-29T00:10:55.829Z,2.55
2022-10-29T00:13:22.565Z,2.15
2022-10-29T00:15:50.653Z,2.47
2022-10-29T00:18:17.427Z,2.17
2022-10-29T00:20:44.174Z,2.55
2022-10-29T00:23:10.875Z,2.42
2022-10-29T00:25:37.593Z,2.63
2022-10-29T00:28:04.331Z,2.38
2022-10-29T00:30:31.054Z,2.15
2022-10-29T00:32:59.209Z,2.05
2022-10-29T00:35:25.947Z,2.22
2022-10-29T00:37:52.887Z,2.00
2022-10-29T00:40:19.919Z,2.60
2022-10-29T00:42:46.729Z,1.90
2022-10-29T00:45:21.036Z,2.72
2022-10-29T00:47:52.626Z,2.55
2022-10-29T00:50:23.611Z,2.17
2022-10-29T00:52:52.042Z,2.60
2022-10-29T00:55:20.776Z,1.88
2022-10-29T00:57:50.222Z,2.17
2022-10-29T01:00:18.409Z,2.30
2022-10-29T01:02:45.656Z,1.95
2022-10-29T01:05:15.399Z,1.90
2022-10-29T01:07:43.458Z,1.88
2022-10-29T01:10:11.480Z,2.13
2022-10-29T01:13:02.420Z,1.95
2022-10-29T01:15:40.782Z,1.92
2022-10-29T01:18:20.263Z,1.95
2022-10-29T01:21:14.562Z,1.83
2022-10-29T01:24:20.360Z,2.10
2022-10-29T01:27:14.122Z,2.28
2022-10-29T01:29:59.811Z,2.17
2022-10-29T01:32:33.618Z,2.33
2022-10-29T01:35:05.253Z,2.50
2022-10-29T01:37:39.949Z,1.95
2022-10-29T01:40:13.701Z,2.20
2022-10-29T01:42:47.010Z,1.98
2022-10-29T01:45:19.093Z,2.10
2022-10-29T01:47:54.025Z,1.73
2022-10-29T01:50:23.427Z,2.28
2022-10-29T01:52:51.510Z,1.83
2022-10-29T01:55:20.735Z,1.98
2022-10-29T01:57:47.557Z,1.60
2022-10-29T02:00:17.402Z,1.90
2022-10-29T02:03:14.206Z,1.58
2022-10-29T02:05:51.308Z,1.77
2022-10-29T02:08:26.787Z,1.58
2022-10-29T02:10:59.806Z,1.50
2022-10-29T02:13:31.638Z,1.80
2022-10-29T02:16:00.325Z,2.08
2022-10-29T02:18:28.553Z,1.60
2022-10-29T02:20:55.294Z,1.80
2022-10-29T02:23:22.040Z,1.63
2022-10-29T02:25:48.813Z,1.73
2022-10-29T02:28:15.725Z,1.48
2022-10-29T02:30:42.504Z,2.35
2022-10-29T02:33:09.323Z,1.70
2022-10-29T02:35:37.410Z,1.95
2022-10-29T02:38:04.187Z,2.08
2022-10-29T02:40:30.909Z,2.00
2022-10-29T02:42:57.731Z,2.13
2022-10-29T02:45:24.696Z,1.60
2022-10-29T02:47:51.403Z,1.83
2022-10-29T02:50:18.174Z,1.90
2022-10-29T02:52:46.243Z,2.25
2022-10-29T02:55:13.059Z,2.00
2022-10-29T02:57:42.646Z,1.90
2022-10-29T03:00:10.497Z,1.90
2022-10-29T03:02:37.601Z,1.45
2022-10-29T03:05:05.143Z,1.70
2022-10-29T03:07:35.531Z,2.05
2022-10-29T03:10:03.697Z,1.77
2022-10-29T03:12:30.819Z,2.15
2022-10-29T03:14:57.641Z,1.75
2022-10-29T03:17:24.471Z,1.80
2022-10-29T03:19:51.358Z,1.80
2022-10-29T03:22:18.063Z,2.00
2022-10-29T03:24:44.786Z,1.63
2022-10-29T03:27:12.848Z,1.55
2022-10-29T03:29:39.550Z,1.67
2022-10-29T03:32:06.359Z,1.75
2022-10-29T03:34:33.431Z,2.10
2022-10-29T03:37:00.177Z,2.10
2022-10-29T03:39:26.934Z,2.13
2022-10-29T03:41:53.628Z,1.85
2022-10-29T03:44:21.652Z,2.05
2022-10-29T03:46:48.392Z,1.60
2022-10-29T03:49:15.201Z,1.92
2022-10-29T03:51:41.940Z,1.50
2022-10-29T03:54:08.654Z,1.65
2022-10-29T03:56:35.370Z,1.65
2022-10-29T03:59:02.156Z,1.73
2022-10-29T04:01:30.455Z,1.70
2022-10-29T04:03:57.402Z,1.88
2022-10-29T04:06:24.137Z,1.63
2022-10-29T04:08:50.846Z,1.60
2022-10-29T04:11:17.674Z,1.92
2022-10-29T04:13:44.386Z,1.88
2022-10-29T04:16:11.130Z,2.00
2022-10-29T04:18:39.194Z,2.15
2022-10-29T04:22:45.383Z,1.92
2022-10-29T04:29:26.304Z,2.22
2022-10-29T04:31:53.056Z,2.13
2022-10-29T04:34:21.218Z,1.80
2022-10-29T04:36:48.001Z,2.00
2022-10-29T04:39:17.200Z,1.73
2022-10-29T04:41:48.397Z,1.92
2022-10-29T04:44:15.166Z,2.08
2022-10-29T04:46:41.899Z,2.03
2022-10-29T04:49:08.740Z,1.80
2022-10-29T04:51:37.047Z,2.40
2022-10-29T04:54:04.104Z,1.77
2022-10-29T04:56:31.312Z,1.77
2022-10-29T04:58:58.020Z,1.90
2022-10-29T05:01:25.054Z,2.00
2022-10-29T05:03:55.592Z,1.70
2022-10-29T05:06:25.693Z,1.75
2022-10-29T05:08:53.755Z,1.90
2022-10-29T05:11:20.486Z,1.58
2022-10-29T05:13:47.251Z,1.77
2022-10-29T05:16:14.131Z,1.73
2022-10-29T05:18:40.914Z,1.63
2022-10-29T05:21:07.779Z,2.10
2022-10-29T05:23:34.513Z,2.08
2022-10-29T05:26:02.568Z,2.63
2022-10-29T05:28:29.298Z,2.25
2022-10-29T05:30:56.383Z,2.58
2022-10-29T05:33:24.293Z,2.20
2022-10-29T05:35:51.593Z,2.90
2022-10-29T05:38:18.789Z,2.72
2022-10-29T05:40:45.904Z,2.40
2022-10-29T05:43:15.134Z,2.55
2022-10-29T05:45:42.309Z,2.63
2022-10-29T05:50:42.923Z,3.30
2022-10-29T05:53:11.484Z,2.08
2022-10-29T05:55:38.401Z,1.95
2022-10-29T05:58:06.796Z,2.35
2022-10-29T06:00:37.533Z,2.22
2022-10-29T06:03:04.510Z,2.40
2022-10-29T06:05:31.274Z,2.25
2022-10-29T06:07:59.555Z,2.28
2022-10-29T06:10:28.422Z,2.13
2022-10-29T06:12:55.208Z,1.52
2022-10-29T06:15:22.043Z,2.05
2022-10-29T06:17:50.225Z,2.05
2022-10-29T06:20:19.320Z,1.90
2022-10-29T06:22:46.134Z,2.40
2022-10-29T06:25:12.905Z,2.42
2022-10-29T06:27:39.656Z,3.67
2022-10-29T06:30:07.808Z,4.55
2022-10-29T06:32:34.537Z,3.47
2022-10-29T06:35:02.637Z,2.40
2022-10-29T06:37:29.343Z,2.40
2022-10-29T06:39:56.108Z,2.38
2022-10-29T06:42:22.853Z,3.72
2022-10-29T06:44:49.620Z,3.13
2022-10-29T06:47:16.362Z,3.08
2022-10-29T06:49:43.190Z,3.38
2022-10-29T06:52:11.329Z,2.88
2022-10-29T06:54:38.071Z,2.83
2022-10-29T06:57:04.889Z,2.72
2022-10-29T06:59:31.617Z,2.85
2022-10-29T07:01:58.436Z,3.60
2022-10-29T07:04:25.440Z,2.92
2022-10-29T07:06:52.180Z,2.90
2022-10-29T07:09:20.305Z,3.22
2022-10-29T07:11:47.116Z,2.38
2022-10-29T07:14:13.821Z,2.47
2022-10-29T07:16:40.873Z,2.78
2022-10-29T07:19:07.589Z,3.55
2022-10-29T07:21:34.387Z,2.95
2022-10-29T07:24:01.331Z,2.80
2022-10-29T07:26:29.482Z,2.85
2022-10-29T07:28:56.484Z,3.17
2022-10-29T07:31:23.521Z,3.45
2022-10-29T07:33:50.384Z,3.53
2022-10-29T07:36:17.205Z,3.00
2022-10-29T07:38:43.933Z,3.63
2022-10-29T07:41:10.702Z,5.03
2022-10-29T07:43:38.810Z,39.30
2022-10-29T07:46:06.241Z,23.58
2022-10-29T07:48:33.304Z,11.05
2022-10-29T07:51:01.011Z,5.45
2022-10-29T07:53:28.013Z,4.15
2022-10-29T07:55:55.527Z,5.32
2022-10-29T07:58:23.046Z,7.47
2022-10-29T08:00:51.267Z,5.05
2022-10-29T08:03:18.121Z,3.50
2022-10-29T08:05:44.879Z,4.32
2022-10-29T08:08:11.676Z,4.90
2022-10-29T08:10:38.475Z,5.05
2022-10-29T08:13:06.398Z,11.55
2022-10-29T08:15:34.445Z,3.65
2022-10-29T08:18:02.993Z,2.92
2022-10-29T08:20:30.084Z,2.13
2022-10-29T08:22:59.880Z,2.67
2022-10-29T08:25:27.353Z,3.13
2022-10-29T08:28:01.524Z,2.40
2022-10-29T08:32:55.698Z,2.88
2022-10-29T08:35:24.076Z,2.67
2022-10-29T08:37:50.811Z,2.63
2022-10-29T08:40:29.212Z,3.65
2022-10-29T08:43:24.944Z,3.65
2022-10-29T08:45:53.507Z,2.45
2022-10-29T08:48:29.669Z,2.83
2022-10-29T08:51:05.478Z,2.80
2022-10-29T08:53:37.867Z,3.47
2022-10-29T08:56:10.633Z,2.95
2022-10-29T08:58:45.283Z,3.38
2022-10-29T09:01:12.591Z,2.58
2022-10-29T09:03:39.514Z,2.65
2022-10-29T09:06:12.804Z,2.63
2022-10-29T09:08:52.212Z,3.70
2022-10-29T09:11:33.658Z,3.10
2022-10-29T09:14:17.837Z,2.95
2022-10-29T09:16:50.338Z,2.92
2022-10-29T09:19:33.180Z,3.08
2022-10-29T09:22:10.437Z,2.92
2022-10-29T09:24:43.023Z,2.50
2022-10-29T09:27:15.354Z,3.08
2022-10-29T09:30:02.625Z,3.05
2022-10-29T09:32:35.359Z,2.78
2022-10-29T09:35:05.696Z,2.75
2022-10-29T09:37:41.213Z,2.83
2022-10-29T09:40:17.768Z,3.15
2022-10-29T09:42:46.706Z,3.35
2022-10-29T09:45:17.247Z,3.28
2022-10-29T09:47:52.088Z,2.70
2022-10-29T09:50:25.142Z,2.78
2022-10-29T09:52:53.684Z,2.67
2022-10-29T09:55:25.414Z,2.63
2022-10-29T09:57:53.436Z,3.03
2022-10-29T10:00:22.922Z,2.10
2022-10-29T10:02:56.358Z,2.72
2022-10-29T10:05:27.151Z,2.80
2022-10-29T10:08:10.837Z,2.10
2022-10-29T10:10:49.648Z,2.80
2022-10-29T10:13:17.704Z,2.65
2022-10-29T10:15:51.243Z,2.58
2022-10-29T10:18:19.870Z,2.72
2022-10-29T10:20:48.890Z,2.78
2022-10-29T10:23:23.391Z,2.35
2022-10-29T10:25:53.622Z,2.38
2022-10-29T10:28:22.092Z,2.28
2022-10-29T10:31:07.897Z,1.98
2022-10-29T10:33:37.062Z,2.55
2022-10-29T10:36:07.135Z,1.90
2022-10-29T10:38:45.224Z,2.60
2022-10-29T10:41:13.715Z,2.30
2022-10-29T10:43:44.770Z,2.20
2022-10-29T10:46:16.129Z,1.65
2022-10-29T10:48:43.076Z,2.67
2022-10-29T10:51:19.980Z,2.85
2022-10-29T10:53:48.711Z,2.28
2022-10-29T10:56:17.719Z,2.90
2022-10-29T10:58:50.384Z,1.88
2022-10-29T11:01:22.792Z,2.15
2022-10-29T11:03:56.240Z,2.00
2022-10-29T11:06:28.325Z,1.90
2022-10-29T11:09:03.585Z,2.28
2022-10-29T11:11:34.851Z,2.47
2022-10-29T11:14:06.085Z,2.28
2022-10-29T11:16:39.387Z,2.35
2022-10-29T11:19:14.697Z,2.20
2022-10-29T11:21:46.581Z,1.95
2022-10-29T11:24:20.845Z,2.28
2022-10-29T11:26:53.369Z,2.40
2022-10-29T11:29:24.849Z,1.73
2022-10-29T11:31:59.742Z,1.88
2022-10-29T11:34:44.981Z,2.22
2022-10-29T11:37:21.270Z,1.95
2022-10-29T11:39:56.226Z,2.30
2022-10-29T11:42:23.104Z,2.15
2022-10-29T11:44:49.969Z,2.15
2022-10-29T11:47:33.689Z,1.77
2022-10-29T11:50:20.204Z,1.97
2022-10-29T11:52:55.592Z,1.77
2022-10-29T11:55:33.372Z,2.17
2022-10-29T11:58:03.675Z,1.92
2022-10-29T12:00:38.384Z,1.98
2022-10-29T12:03:34.346Z,2.13
2022-10-29T12:06:13.657Z,1.95
2022-10-29T12:08:54.376Z,2.72
2022-10-29T12:11:29.272Z,1.95
2022-10-29T12:14:05.407Z,2.10
2022-10-29T12:16:42.676Z,2.10
2022-10-29T12:19:22.680Z,2.10
2022-10-29T12:21:55.678Z,1.80
2022-10-29T12:24:33.537Z,2.00
2022-10-29T12:27:07.796Z,1.85
2022-10-29T12:29:45.518Z,1.83
2022-10-29T12:32:19.340Z,1.70
2022-10-29T12:34:52.286Z,2.95
2022-10-29T12:37:27.981Z,1.42
2022-10-29T12:40:00.132Z,2.20
2022-10-29T12:42:29.207Z,1.55
2022-10-29T12:45:06.137Z,1.83
2022-10-29T12:47:38.614Z,2.20
2022-10-29T12:50:18.731Z,2.00
2022-10-29T12:52:52.549Z,1.75
2022-10-29T12:55:19.773Z,2.13
2022-10-29T12:57:47.924Z,2.08
2022-10-29T13:00:44.849Z,1.88
2022-10-29T13:03:11.845Z,1.63
2022-10-29T13:05:42.278Z,1.80
2022-10-29T13:08:36.289Z,3.35
2022-10-29T13:11:19.151Z,2.10
2022-10-29T13:13:58.788Z,2.35
2022-10-29T13:16:30.874Z,2.03
2022-10-29T13:19:09.020Z,1.90
2022-10-29T13:22:04.349Z,2.10
2022-10-29T13:24:31.668Z,2.25
2022-10-29T13:27:21.216Z,2.05
2022-10-29T13:29:51.076Z,2.08
2022-10-29T13:32:31.920Z,1.83
2022-10-29T13:35:00.205Z,2.35
2022-10-29T13:37:48.704Z,1.95
2022-10-29T13:40:52.058Z,1.83
2022-10-29T13:43:19.164Z,2.35
2022-10-29T13:45:51.735Z,1.40
2022-10-29T13:48:25.125Z,2.17
2022-10-29T13:50:54.560Z,1.77
2022-10-29T13:53:28.295Z,2.30
2022-10-29T13:55:56.088Z,2.03
2022-10-29T13:58:28.841Z,1.67
2022-10-29T14:00:57.611Z,1.55
2022-10-29T14:03:31.611Z,1.88
2022-10-29T14:06:03.293Z,1.60
2022-10-29T14:08:37.025Z,1.83
2022-10-29T14:11:12.451Z,2.45
2022-10-29T14:13:44.280Z,2.22
2022-10-29T14:16:14.084Z,1.45
2022-10-29T14:18:42.042Z,1.90
2022-10-29T14:21:13.909Z,1.98
2022-10-29T14:23:40.628Z,1.70
2022-10-29T14:26:16.133Z,2.33
2022-10-29T14:28:43.051Z,1.75
2022-10-29T14:31:14.876Z,2.17
2022-10-29T14:33:42.526Z,2.25
2022-10-29T14:36:15.410Z,1.60
2022-10-29T14:38:46.583Z,2.10
2022-10-29T14:41:15.417Z,2.15
2022-10-29T14:43:42.933Z,1.75
2022-10-29T14:46:18.705Z,1.83
2022-10-29T14:48:53.460Z,2.05
2022-10-29T14:51:21.754Z,2.00
2022-10-29T14:53:54.264Z,2.28
2022-10-29T14:56:25.589Z,2.20
2022-10-29T14:58:52.412Z,2.00
2022-10-29T15:01:20.735Z,2.22
2022-10-29T15:03:48.087Z,1.42
2022-10-29T15:06:16.926Z,2.10
2022-10-29T15:08:45.244Z,2.83
2022-10-29T15:11:35.156Z,2.03
2022-10-29T15:14:02.781Z,1.67
2022-10-29T15:16:31.725Z,2.10
2022-10-29T15:18:59.899Z,3.65
2022-10-29T15:21:30.046Z,8.50
2022-10-29T15:24:01.057Z,3.72
2022-10-29T15:26:27.872Z,2.63
2022-10-29T15:28:56.654Z,2.20
2022-10-29T15:31:29.100Z,3.30
2022-10-29T15:34:06.921Z,4.38
2022-10-29T15:36:45.490Z,3.42
2022-10-29T15:39:20.718Z,2.67
2022-10-29T15:41:49.937Z,8.80
2022-10-29T15:44:36.300Z,7.70
2022-10-29T15:47:18.791Z,4.18
2022-10-29T15:49:46.929Z,5.22
2022-10-29T15:52:17.339Z,5.60
2022-10-29T15:54:44.392Z,3.13
2022-10-29T15:57:13.392Z,3.20
2022-10-29T15:59:40.533Z,4.03
2022-10-29T16:02:11.304Z,4.57
2022-10-29T16:04:38.162Z,6.25
2022-10-29T16:07:08.308Z,3.03
2022-10-29T16:09:35.064Z,3.97
2022-10-29T16:12:01.859Z,2.85
2022-10-29T16:14:28.572Z,2.83
2022-10-29T16:16:55.421Z,3.17
2022-10-29T16:19:22.160Z,2.42
2022-10-29T16:21:48.872Z,2.45
2022-10-29T16:24:16.972Z,3.78
2022-10-29T16:26:43.690Z,2.83
2022-10-29T16:29:10.464Z,2.60
2022-10-29T16:31:37.460Z,2.35
2022-10-29T16:34:06.084Z,2.53
2022-10-29T16:36:33.366Z,2.80
2022-10-29T16:39:00.214Z,4.22
2022-10-29T16:41:28.534Z,8.77
2022-10-29T16:43:55.360Z,12.60
2022-10-29T16:46:22.106Z,11.43
2022-10-29T16:48:48.900Z,9.95
2022-10-29T16:51:15.737Z,8.70
2022-10-29T16:53:42.457Z,8.95
2022-10-29T16:56:09.195Z,8.98
2022-10-29T16:58:37.440Z,8.20
2022-10-29T17:01:05.428Z,9.48
2022-10-29T17:03:32.412Z,9.07
2022-10-29T17:06:03.432Z,9.77
2022-10-29T17:08:31.982Z,9.10
2022-10-29T17:10:58.932Z,8.80
2022-10-29T17:13:25.670Z,8.85
2022-10-29T17:15:53.912Z,10.02
2022-10-29T17:18:20.685Z,8.52
2022-10-29T17:20:55.402Z,9.18
2022-10-29T17:23:22.165Z,7.07
2022-10-29T17:25:51.978Z,6.30
2022-10-29T17:28:19.597Z,6.05
2022-10-29T17:30:46.343Z,5.93
2022-10-29T17:33:14.562Z,5.05
2022-10-29T17:35:41.311Z,4.32
2022-10-29T17:38:08.431Z,3.45
2022-10-29T17:40:35.437Z,3.10
2022-10-29T17:43:02.267Z,2.63
2022-10-29T17:45:29.054Z,2.95
2022-10-29T17:47:56.596Z,2.50
2022-10-29T17:50:25.910Z,3.72
2022-10-29T17:52:52.747Z,4.15
2022-10-29T17:55:19.576Z,3.70
2022-10-29T17:57:46.313Z,2.90
2022-10-29T18:00:14.141Z,3.25
2022-10-29T18:02:40.973Z,2.90
2022-10-29T18:05:08.312Z,2.95
2022-10-29T18:07:36.469Z,3.17
2022-10-29T18:10:03.798Z,2.88
2022-10-29T18:12:30.701Z,3.53
2022-10-29T18:14:57.522Z,3.78
2022-10-29T18:17:24.537Z,4.25
2022-10-29T18:19:51.317Z,3.78
2022-10-29T18:22:18.215Z,3.40
2022-10-29T18:24:46.318Z,3.72
2022-10-29T18:27:13.044Z,3.20
2022-10-29T18:29:39.811Z,3.90
2022-10-29T18:32:06.558Z,3.38
2022-10-29T18:34:33.314Z,4.35
2022-10-29T18:37:00.237Z,3.50
2022-10-29T18:39:26.983Z,3.60
2022-10-29T18:41:55.147Z,3.58
2022-10-29T18:44:21.850Z,3.55
2022-10-29T18:46:48.681Z,3.20
2022-10-29T18:49:15.410Z,3.00
2022-10-29T18:51:42.212Z,3.17
2022-10-29T18:54:10.406Z,3.17
2022-10-29T18:56:37.240Z,2.90
2022-10-29T18:59:05.737Z,3.17
2022-10-29T19:01:34.520Z,2.97
2022-10-29T19:04:03.008Z,3.40
2022-10-29T19:06:32.039Z,3.95
2022-10-29T19:09:00.230Z,3.00
2022-10-29T19:11:27.522Z,3.13
2022-10-29T19:13:56.016Z,3.10
2022-10-29T19:16:24.982Z,3.63
2022-10-29T19:18:54.435Z,3.65
2022-10-29T19:21:21.239Z,3.35
2022-10-29T19:23:48.072Z,3.92
2022-10-29T19:26:16.042Z,3.25
2022-10-29T19:28:43.955Z,4.35
2022-10-29T19:31:14.316Z,4.50
2022-10-29T19:33:42.465Z,4.57
2022-10-29T19:36:09.581Z,3.90
2022-10-29T19:38:36.512Z,3.25
2022-10-29T19:41:03.287Z,4.22
2022-10-29T19:43:30.509Z,3.78
2022-10-29T19:45:57.833Z,3.95
2022-10-29T19:48:25.100Z,3.55
2022-10-29T19:50:53.872Z,4.22
2022-10-29T19:53:20.677Z,3.70
2022-10-29T19:55:47.416Z,3.97
2022-10-29T19:58:14.148Z,3.90
2022-10-29T20:00:40.837Z,3.72
2022-10-29T20:03:07.573Z,4.72
2022-10-29T20:05:35.367Z,4.38
2022-10-29T20:08:03.486Z,3.42
2022-10-29T20:10:30.339Z,3.55
2022-10-29T20:12:57.177Z,3.58
2022-10-29T20:15:24.846Z,3.83
2022-10-29T20:17:51.857Z,3.75
2022-10-29T20:20:18.928Z,3.60
2022-10-29T20:22:45.676Z,3.85
2022-10-29T20:25:15.229Z,3.90
2022-10-29T20:27:42.157Z,3.50
2022-10-29T20:30:10.366Z,2.80
2022-10-29T20:32:37.108Z,2.92
2022-10-29T20:35:04.176Z,3.17
2022-10-29T20:37:30.982Z,3.22
2022-10-29T20:39:57.714Z,2.90
2022-10-29T20:42:25.819Z,3.80
2022-10-29T20:44:52.567Z,2.88
2022-10-29T20:47:19.313Z,3.35
2022-10-29T20:49:46.151Z,3.03
2022-10-29T20:52:12.943Z,3.53
2022-10-29T20:54:39.667Z,3.22
2022-10-29T20:57:06.438Z,4.43
2022-10-29T20:59:34.531Z,4.65
2022-10-29T21:02:01.423Z,4.22
2022-10-29T21:04:28.432Z,3.85
2022-10-29T21:06:55.174Z,3.58
2022-10-29T21:09:21.970Z,4.10
2022-10-29T21:11:48.784Z,2.90
2022-10-29T21:14:15.611Z,3.58
2022-10-29T21:16:44.242Z,3.70
2022-10-29T21:19:10.993Z,3.15
2022-10-29T21:21:37.758Z,3.40
2022-10-29T21:24:04.784Z,3.33
2022-10-29T21:26:31.569Z,4.13
2022-10-29T21:28:58.415Z,3.42
2022-10-29T21:31:25.266Z,3.70
2022-10-29T21:33:54.397Z,4.22
2022-10-29T21:36:21.862Z,4.28
2022-10-29T21:38:48.773Z,4.07
2022-10-29T21:41:16.021Z,5.28
2022-10-29T21:43:42.739Z,4.60
2022-10-29T21:46:09.740Z,3.05
2022-10-29T21:48:36.519Z,3.03
2022-10-29T21:51:07.332Z,2.85
2022-10-29T21:53:34.686Z,3.15
2022-10-29T21:56:04.404Z,4.13
2022-10-29T21:58:31.737Z,3.95
2022-10-29T22:01:02.978Z,4.82
2022-10-29T22:03:30.629Z,4.13
2022-10-29T22:06:01.793Z,5.25
2022-10-29T22:08:29.883Z,5.10
2022-10-29T22:10:57.374Z,4.72
2022-10-29T22:13:24.133Z,4.85
2022-10-29T22:15:50.863Z,4.30
2022-10-29T22:18:17.748Z,3.55
2022-10-29T22:20:44.515Z,3.45
2022-10-29T22:23:11.351Z,3.00
2022-10-29T22:25:39.512Z,3.60
2022-10-29T22:28:06.304Z,2.75
2022-10-29T22:30:33.078Z,3.08
2022-10-29T22:32:59.884Z,2.85
2022-10-29T22:35:26.635Z,2.60
2022-10-29T22:37:53.818Z,3.33
2022-10-29T22:40:20.623Z,3.72
2022-10-29T22:42:48.733Z,3.38
2022-10-29T22:45:15.557Z,3.45
2022-10-29T22:47:42.287Z,3.80
2022-10-29T22:50:09.536Z,3.20
2022-10-29T22:52:36.325Z,3.42
2022-10-29T22:55:03.501Z,3.40
2022-10-29T22:57:30.277Z,3.03
2022-10-29T22:59:58.561Z,3.58
2022-10-29T23:02:25.339Z,4.03
2022-10-29T23:04:52.188Z,3.55
2022-10-29T23:07:18.969Z,3.28
2022-10-29T23:09:45.816Z,3.20
2022-10-29T23:12:12.565Z,2.97
2022-10-29T23:14:39.451Z,3.28
2022-10-29T23:17:07.547Z,2.58
2022-10-29T23:19:34.325Z,3.10
2022-10-29T23:22:01.239Z,3.47
2022-10-29T23:24:28.111Z,3.08
2022-10-29T23:26:54.853Z,3.28
2022-10-29T23:29:21.591Z,3.45
2022-10-29T23:31:48.354Z,3.03
2022-10-29T23:34:16.490Z,3.10
2022-10-29T23:36:43.287Z,2.80
2022-10-29T23:39:11.718Z,3.20
2022-10-29T23:41:38.502Z,3.00
2022-10-29T23:44:05.425Z,3.13
2022-10-29T23:46:32.260Z,2.55
2022-10-29T23:48:59.053Z,3.30
2022-10-29T23:51:27.385Z,3.33
2022-10-29T23:53:56.601Z,3.20
2022-10-29T23:56:25.701Z,3.40
2022-10-29T23:58:52.459Z,3.08
